EST,Max TemperatureF,Mean TemperatureF,Min TemperatureF,Max Dew PointF,MeanDew PointF,Min DewpointF,Max Humidity, Mean Humidity, Min Humidity, Max Sea Level PressureIn, Mean Sea Level PressureIn, Min Sea Level PressureIn, Max VisibilityMiles, Mean VisibilityMiles, Min VisibilityMiles, Max Wind SpeedMPH, Mean Wind SpeedMPH, Max Gust SpeedMPH,PrecipitationIn, CloudCover, Events, WindDirDegrees
2013-2-1,21,16,12,10,5,1,79,60,49,30.28,30.18,29.99,10,10,7,18,15,28,0.00,6,Snow,265
2013-2-2,21,16,10,19,13,5,93,82,73,30.16,30.03,29.93,10,3,1,15,10,21,0.09,8,Snow,240
2013-2-3,21,14,6,16,9,1,85,71,58,30.01,29.91,29.82,12,8,2,15,7,23,0.02,7,Snow,273
2013-2-4,19,16,14,16,13,9,93,81,68,30.04,29.97,29.87,12,6,2,6,2,,0.05,8,Snow,135
2013-2-5,26,22,17,25,19,14,93,79,64,29.97,29.88,29.79,10,6,1,14,5,,0.02,8,Snow,207
2013-2-6,24,17,10,16,13,9,92,77,63,30.34,30.28,30.14,12,10,10,10,5,,0.00,1,,171
2013-2-7,37,30,24,27,23,18,80,72,60,30.30,30.14,29.96,10,8,7,14,8,,0.00,8,Snow,111
2013-2-8,30,26,21,30,24,16,100,87,80,30.32,30.04,29.78,7,4,1,28,12,38,0.01,8,Snow,347
2013-2-9,30,22,14,19,14,9,86,72,55,30.45,30.40,30.30,12,12,12,8,5,,0.00,1,,175
2013-2-10,35,27,19,32,24,16,93,79,65,30.23,30.02,29.72,12,9,7,15,8,,0.00,7,Rain,135
2013-2-11,46,40,33,32,28,25,70,65,53,29.79,29.62,29.52,12,10,10,29,16,40,0.00,8,,229
2013-2-12,33,32,30,23,22,21,69,66,64,30.05,29.98,29.90,12,9,7,16,12,26,0.00,8,,266
2013-2-13,33,30,26,27,23,19,93,76,60,29.91,29.82,29.73,10,9,7,10,5,,0.00,5,,190
2013-2-14,37,30,24,36,33,23,100,92,70,29.80,29.72,29.66,12,4,1,20,11,31,0.04,8,Rain,197
2013-2-15,30,28,26,23,14,10,80,58,47,30.13,30.07,29.92,10,10,10,14,10,18,0.00,7,,297
2013-2-16,26,22,17,19,16,12,93,79,55,30.08,30.01,29.94,12,5,0,10,4,,0.15,7,Snow,332
2013-2-17,21,14,8,7,4,1,79,62,42,30.27,30.19,30.04,12,12,12,15,8,21,0.00,2,,317
2013-2-18,,,,,,,,,,,,,,,,,,,0.00,,,-1
2013-2-19,41,30,19,41,23,9,100,78,60,29.91,29.63,29.40,12,7,2,25,18,39,0.00,8,Rain-Snow,244
2013-2-20,23,20,17,12,9,7,68,60,54,30.24,30.14,29.99,12,9,7,18,15,28,0.00,8,Snow,294
2013-2-21,23,20,17,19,12,9,86,71,58,30.43,30.36,30.24,12,10,4,14,8,,0.00,8,Snow,10
2013-2-22,33,28,23,32,27,18,100,94,80,30.17,29.97,29.87,10,3,0,22,15,,0.24,8,Fog-Snow,128
2013-2-23,33,30,28,28,22,19,81,67,56,29.95,29.91,29.86,12,9,7,14,10,,0.00,8,Snow,240
2013-2-24,35,30,24,25,23,19,93,77,65,30.16,30.04,29.89,12,10,4,15,8,17,0.00,5,Snow,282
2013-2-25,37,27,17,25,22,16,93,77,56,30.26,30.20,30.12,12,10,7,7,3,,0.00,1,Fog,110
2013-2-26,35,32,28,34,28,21,100,86,70,30.11,29.80,29.55,12,6,0,20,12,26,0.03,7,Rain-Snow,66
2013-2-27,37,34,32,36,34,32,100,98,81,29.60,29.53,29.45,12,5,0,18,13,25,0.07,8,Fog-Rain-Snow,156
2013-2-28,37,34,30,34,30,25,100,89,75,29.96,29.74,29.51,12,8,2,22,11,29,0.01,8,Rain-Snow,326